createdAt,value
2018-05-17T00:00:37.983Z,15.90
2018-05-17T00:03:05.634Z,17.00
2018-05-17T00:05:33.161Z,21.00
2018-05-17T00:08:00.719Z,16.30
2018-05-17T00:10:28.243Z,18.67
2018-05-17T00:12:55.841Z,20.45
2018-05-17T00:15:23.461Z,22.43
2018-05-17T00:17:51.013Z,28.20
2018-05-17T00:20:18.543Z,21.77
2018-05-17T00:22:48.000Z,19.98
2018-05-17T00:25:15.519Z,23.07
2018-05-17T00:27:43.938Z,20.10
2018-05-17T00:30:11.526Z,24.00
2018-05-17T00:32:39.874Z,18.93
2018-05-17T00:35:07.395Z,25.93
2018-05-17T00:37:35.035Z,27.10
2018-05-17T00:40:02.583Z,19.73
2018-05-17T00:42:30.130Z,21.93
2018-05-17T00:44:57.659Z,25.77
2018-05-17T00:47:25.207Z,20.00
2018-05-17T00:49:52.762Z,25.40
2018-05-17T00:52:20.348Z,23.63
2018-05-17T00:54:47.854Z,23.60
2018-05-17T00:57:15.501Z,21.50
2018-05-17T00:59:43.022Z,23.33
2018-05-17T01:02:10.585Z,29.80
2018-05-17T01:04:38.444Z,20.63
2018-05-17T01:07:06.012Z,23.40
2018-05-17T01:09:33.668Z,22.37
2018-05-17T01:12:01.399Z,20.53
2018-05-17T01:14:28.923Z,19.80
2018-05-17T01:16:56.539Z,21.07
2018-05-17T01:19:24.066Z,20.10
2018-05-17T01:21:51.595Z,26.33
2018-05-17T01:24:19.199Z,18.73
2018-05-17T01:26:47.649Z,24.60
2018-05-17T01:29:17.471Z,20.80
2018-05-17T01:31:44.986Z,33.13
2018-05-17T01:34:12.553Z,25.03
2018-05-17T01:36:52.002Z,27.50
2018-05-17T01:39:19.728Z,24.17
2018-05-17T01:41:48.766Z,22.40
2018-05-17T01:44:16.302Z,31.13
2018-05-17T01:46:44.709Z,25.27
2018-05-17T01:49:12.268Z,25.60
2018-05-17T01:51:39.801Z,22.57
2018-05-17T01:54:07.378Z,24.20
2018-05-17T01:56:35.099Z,30.03
2018-05-17T01:59:02.656Z,28.23
2018-05-17T02:01:30.182Z,25.93
2018-05-17T02:03:57.835Z,27.83
2018-05-17T02:06:25.361Z,28.63
2018-05-17T02:08:52.903Z,26.63
2018-05-17T02:11:20.478Z,25.83
2018-05-17T02:13:49.530Z,30.25
2018-05-17T02:16:17.052Z,29.27
2018-05-17T02:18:44.593Z,25.60
2018-05-17T02:21:12.888Z,33.77
2018-05-17T02:23:40.540Z,32.73
2018-05-17T02:26:08.053Z,30.73
2018-05-17T02:28:35.595Z,31.10
2018-05-17T02:31:03.128Z,30.97
2018-05-17T02:33:30.684Z,28.13
2018-05-17T02:35:58.211Z,30.50
2018-05-17T02:38:25.755Z,36.20
2018-05-17T02:40:54.080Z,30.80
2018-05-17T02:43:21.610Z,32.43
2018-05-17T02:45:50.277Z,34.13
2018-05-17T02:48:17.799Z,48.70
2018-05-17T02:50:45.353Z,38.53
2018-05-17T02:53:12.883Z,36.37
2018-05-17T02:55:40.459Z,35.70
2018-05-17T02:58:08.032Z,33.13
2018-05-17T03:00:35.600Z,44.03
2018-05-17T03:03:03.147Z,46.97
2018-05-17T03:05:31.467Z,41.00
2018-05-17T03:07:58.989Z,51.60
2018-05-17T03:10:26.533Z,47.97
2018-05-17T03:12:54.068Z,42.47
2018-05-17T03:15:21.743Z,45.60
2018-05-17T03:17:50.196Z,46.77
2018-05-17T03:20:17.733Z,44.10
2018-05-17T03:22:46.164Z,37.70
2018-05-17T03:25:14.479Z,37.17
2018-05-17T03:27:42.027Z,38.43
2018-05-17T03:30:09.577Z,35.33
2018-05-17T03:32:37.211Z,35.17
2018-05-17T03:35:04.796Z,38.30
2018-05-17T03:37:33.098Z,32.70
2018-05-17T03:40:00.682Z,34.97
2018-05-17T03:42:28.203Z,39.50
2018-05-17T03:44:55.754Z,34.90
2018-05-17T03:47:23.278Z,37.30
2018-05-17T03:49:51.864Z,42.10
2018-05-17T03:52:19.404Z,42.37
2018-05-17T03:54:46.959Z,41.37
2018-05-17T03:57:14.494Z,38.23
2018-05-17T03:59:42.088Z,35.53
2018-05-17T04:02:22.487Z,38.07
2018-05-17T04:05:02.474Z,41.17
2018-05-17T04:07:30.371Z,41.43
2018-05-17T04:09:58.120Z,39.13
2018-05-17T04:12:25.943Z,41.70
2018-05-17T04:14:53.925Z,43.23
2018-05-17T04:17:21.491Z,39.77
2018-05-17T04:19:49.083Z,38.50
2018-05-17T04:22:16.617Z,40.27
2018-05-17T04:24:45.023Z,36.13
2018-05-17T04:27:12.851Z,44.07
2018-05-17T04:29:40.627Z,41.13
2018-05-17T04:32:09.194Z,40.93
2018-05-17T04:34:36.995Z,43.80
2018-05-17T04:37:06.144Z,38.90
2018-05-17T04:39:34.189Z,35.60
2018-05-17T04:42:02.034Z,38.83
2018-05-17T04:44:30.604Z,40.77
2018-05-17T04:46:58.586Z,46.63
2018-05-17T04:49:26.201Z,39.57
2018-05-17T04:51:53.853Z,48.40
2018-05-17T04:54:21.416Z,36.00
2018-05-17T04:56:48.985Z,38.83
2018-05-17T04:59:17.275Z,34.40
2018-05-17T05:01:44.827Z,36.30
2018-05-17T05:04:12.399Z,35.87
2018-05-17T05:06:39.943Z,35.30
2018-05-17T05:09:07.516Z,36.20
2018-05-17T05:11:35.075Z,44.67
2018-05-17T05:14:03.491Z,55.70
2018-05-17T05:16:31.040Z,42.20
2018-05-17T05:18:58.568Z,39.93
2018-05-17T05:21:26.128Z,41.00
2018-05-17T05:23:53.655Z,47.17
2018-05-17T05:26:21.208Z,37.70
2018-05-17T05:28:48.732Z,41.50
2018-05-17T05:31:16.278Z,39.03
2018-05-17T05:33:43.808Z,37.73
2018-05-17T05:36:11.420Z,41.13
2018-05-17T05:38:41.087Z,33.97
2018-05-17T05:41:08.655Z,32.00
2018-05-17T05:43:36.290Z,33.70
2018-05-17T05:46:04.149Z,32.37
2018-05-17T05:48:32.472Z,35.73
2018-05-17T05:51:00.079Z,39.43
2018-05-17T05:53:28.370Z,36.40
2018-05-17T05:55:55.931Z,25.43
2018-05-17T05:58:23.456Z,29.37
2018-05-17T06:00:51.011Z,31.53
2018-05-17T06:03:18.629Z,24.40
2018-05-17T06:05:46.913Z,28.90
2018-05-17T06:08:14.495Z,28.03
2018-05-17T06:10:42.114Z,26.70
2018-05-17T06:13:09.730Z,35.10
2018-05-17T06:15:38.032Z,36.90
2018-05-17T06:18:05.584Z,24.97
2018-05-17T06:20:33.111Z,21.43
2018-05-17T06:23:00.688Z,27.00
2018-05-17T06:25:28.213Z,34.90
2018-05-17T06:27:55.760Z,25.20
2018-05-17T06:30:23.297Z,22.10
2018-05-17T06:32:50.844Z,23.47
2018-05-17T06:35:18.938Z,23.60
2018-05-17T06:37:46.478Z,25.17
2018-05-17T06:40:15.536Z,22.10
2018-05-17T06:42:43.208Z,20.80
2018-05-17T06:45:10.736Z,25.07
2018-05-17T06:47:38.397Z,30.00
2018-05-17T06:50:06.013Z,25.93
2018-05-17T06:52:35.170Z,24.73
2018-05-17T06:55:02.743Z,34.27
2018-05-17T06:57:30.300Z,24.83
2018-05-17T06:59:58.443Z,24.27
2018-05-17T07:02:26.174Z,20.67
2018-05-17T07:04:53.711Z,23.30
2018-05-17T07:07:21.266Z,24.40
2018-05-17T07:09:48.791Z,22.20
2018-05-17T07:12:16.394Z,21.23
2018-05-17T07:14:45.226Z,27.83
2018-05-17T07:17:12.873Z,34.57
2018-05-17T07:19:40.432Z,22.70
2018-05-17T07:22:08.036Z,21.50
2018-05-17T07:24:36.455Z,22.40
2018-05-17T07:27:04.037Z,25.80
2018-05-17T07:29:31.561Z,28.67
2018-05-17T07:31:59.180Z,26.50
2018-05-17T07:34:26.725Z,33.17
2018-05-17T07:36:54.269Z,31.80
2018-05-17T07:39:21.866Z,39.90
2018-05-17T07:41:49.411Z,28.00
2018-05-17T07:44:17.108Z,27.60
2018-05-17T07:46:44.700Z,19.33
2018-05-17T07:49:12.273Z,24.10
2018-05-17T07:51:39.817Z,25.73
2018-05-17T07:54:07.392Z,22.85
2018-05-17T07:56:34.932Z,32.00
2018-05-17T07:59:02.497Z,23.10
2018-05-17T08:01:30.048Z,24.30
2018-05-17T08:03:57.605Z,25.53
2018-05-17T08:06:25.894Z,16.37
2018-05-17T08:08:53.482Z,19.70
2018-05-17T08:11:21.035Z,24.03
2018-05-17T08:13:48.584Z,21.00
2018-05-17T08:16:16.888Z,23.07
2018-05-17T08:18:44.479Z,17.93
2018-05-17T08:21:12.003Z,19.07
2018-05-17T08:23:39.733Z,17.43
2018-05-17T08:26:07.295Z,17.30
2018-05-17T08:28:34.939Z,23.60
2018-05-17T08:31:02.534Z,16.97
2018-05-17T08:33:30.122Z,28.53
2018-05-17T08:35:59.108Z,24.23
2018-05-17T08:38:26.662Z,15.17
2018-05-17T08:40:54.188Z,14.43
2018-05-17T08:43:21.739Z,17.30
2018-05-17T08:45:49.265Z,15.27
2018-05-17T08:48:16.847Z,22.40
2018-05-17T08:50:44.411Z,20.53
2018-05-17T08:53:12.736Z,23.40
2018-05-17T08:55:40.690Z,29.00
2018-05-17T08:58:08.223Z,19.90
2018-05-17T09:00:35.797Z,34.17
2018-05-17T09:03:03.339Z,36.97
2018-05-17T09:05:31.000Z,27.90
2018-05-17T09:07:59.738Z,23.17
2018-05-17T09:10:27.283Z,36.07
2018-05-17T09:12:54.819Z,32.43
2018-05-17T09:15:22.401Z,27.17
2018-05-17T09:17:49.935Z,24.63
2018-05-17T09:20:17.518Z,28.27
2018-05-17T09:22:45.062Z,32.70
2018-05-17T09:25:12.601Z,25.50
2018-05-17T09:27:41.636Z,28.03
2018-05-17T09:30:09.195Z,32.20
2018-05-17T09:32:36.723Z,43.53
2018-05-17T09:35:04.271Z,27.20
2018-05-17T09:37:31.931Z,26.27
2018-05-17T09:40:00.693Z,26.55
2018-05-17T09:42:28.223Z,26.70
2018-05-17T09:44:55.862Z,36.00
2018-05-17T09:47:23.435Z,26.90
2018-05-17T09:49:50.995Z,26.07
2018-05-17T09:52:18.521Z,26.30
2018-05-17T09:54:46.088Z,30.13
2018-05-17T09:57:13.602Z,33.57
2018-05-17T09:59:41.147Z,36.13
2018-05-17T10:02:08.661Z,29.93
2018-05-17T10:04:37.000Z,31.43
2018-05-17T10:07:05.277Z,27.73
2018-05-17T10:09:33.596Z,39.63
2018-05-17T10:12:01.155Z,35.90
2018-05-17T10:14:28.894Z,35.73
2018-05-17T10:16:56.411Z,28.03
2018-05-17T10:19:23.955Z,34.57
2018-05-17T10:21:51.480Z,24.40
2018-05-17T10:24:19.008Z,30.47
2018-05-17T10:26:47.410Z,27.80
2018-05-17T10:29:14.951Z,28.27
2018-05-17T10:31:42.491Z,32.13
2018-05-17T10:34:10.058Z,33.03
2018-05-17T10:36:37.594Z,30.33
2018-05-17T10:39:05.110Z,29.00
2018-05-17T10:41:32.666Z,31.67
2018-05-17T10:44:01.917Z,40.67
2018-05-17T10:46:30.235Z,36.80
2018-05-17T10:48:57.803Z,28.77
2018-05-17T10:51:25.536Z,36.23
2018-05-17T10:53:53.177Z,31.47
2018-05-17T10:56:20.735Z,43.60
2018-05-17T10:58:48.337Z,26.00
2018-05-17T11:01:16.005Z,41.83
2018-05-17T11:03:43.961Z,32.40
2018-05-17T11:06:12.285Z,27.80
2018-05-17T11:08:40.600Z,28.30
2018-05-17T11:11:08.171Z,24.63
2018-05-17T11:13:35.784Z,30.33
2018-05-17T11:16:03.370Z,37.20
2018-05-17T11:18:30.973Z,35.90
2018-05-17T11:20:58.595Z,42.23
2018-05-17T11:23:26.114Z,24.30
2018-05-17T11:25:54.637Z,32.97
2018-05-17T11:28:22.041Z,26.90
2018-05-17T11:30:49.898Z,36.93
2018-05-17T11:33:17.419Z,23.30
2018-05-17T11:35:45.734Z,37.30
2018-05-17T11:38:13.271Z,35.97
2018-05-17T11:40:40.816Z,33.47
2018-05-17T11:43:08.751Z,32.60
2018-05-17T11:45:36.449Z,35.57
2018-05-17T11:48:04.309Z,32.43
2018-05-17T11:50:31.877Z,27.27
2018-05-17T11:52:59.465Z,41.93
2018-05-17T11:55:27.109Z,32.43
2018-05-17T11:57:54.627Z,39.53
2018-05-17T12:00:22.299Z,34.67
2018-05-17T12:02:49.847Z,32.93
2018-05-17T12:05:17.379Z,33.73
2018-05-17T12:07:44.967Z,41.60
2018-05-17T12:10:12.515Z,25.83
2018-05-17T12:12:40.064Z,27.43
2018-05-17T12:15:08.394Z,33.20
2018-05-17T12:17:36.033Z,26.10
2018-05-17T12:20:04.093Z,47.15
2018-05-17T12:22:32.964Z,25.23
2018-05-17T12:25:00.515Z,32.43
2018-05-17T12:27:28.066Z,36.57
2018-05-17T12:29:55.638Z,35.63
2018-05-17T12:32:23.960Z,40.97
2018-05-17T12:34:51.490Z,33.80
2018-05-17T12:37:19.074Z,38.27
2018-05-17T12:39:48.963Z,21.83
2018-05-17T12:42:16.505Z,37.53
2018-05-17T12:44:44.140Z,36.20
2018-05-17T12:47:11.712Z,23.90
2018-05-17T12:49:39.245Z,23.50
2018-05-17T12:52:06.795Z,23.13
2018-05-17T12:54:34.423Z,33.23
2018-05-17T12:57:01.966Z,33.37
2018-05-17T12:59:29.512Z,28.60
2018-05-17T13:01:57.084Z,25.20
2018-05-17T13:04:25.362Z,25.07
2018-05-17T13:06:53.691Z,24.77
2018-05-17T13:09:21.205Z,24.10
2018-05-17T13:11:48.763Z,35.27
2018-05-17T13:14:16.289Z,33.00
2018-05-17T13:16:43.882Z,41.50
2018-05-17T13:19:11.451Z,34.37
2018-05-17T13:21:39.773Z,27.40
2018-05-17T13:24:07.298Z,23.63
2018-05-17T13:26:35.090Z,31.67
2018-05-17T13:29:03.411Z,32.40
2018-05-17T13:31:30.947Z,41.50
2018-05-17T13:33:58.547Z,20.70
2018-05-17T13:36:26.066Z,36.77
2018-05-17T13:38:53.617Z,32.97
2018-05-17T13:41:22.174Z,39.27
2018-05-17T13:43:49.739Z,31.30
2018-05-17T13:46:17.297Z,31.47
2018-05-17T13:48:45.660Z,26.73
2018-05-17T13:51:13.203Z,30.60
2018-05-17T13:53:41.551Z,36.53
2018-05-17T13:56:09.085Z,21.53
2018-05-17T13:58:36.823Z,24.67
2018-05-17T14:01:04.349Z,28.37
2018-05-17T14:03:31.899Z,28.93
2018-05-17T14:05:59.575Z,37.70
2018-05-17T14:08:27.996Z,30.08
2018-05-17T14:10:55.615Z,22.73
2018-05-17T14:13:23.197Z,23.33
2018-05-17T14:15:50.758Z,28.67
2018-05-17T14:18:18.374Z,30.80
2018-05-17T14:20:46.708Z,29.17
2018-05-17T14:23:14.420Z,40.37
2018-05-17T14:25:42.033Z,32.30
2018-05-17T14:28:09.696Z,20.63
2018-05-17T14:30:37.268Z,21.10
2018-05-17T14:33:04.846Z,25.30
2018-05-17T14:35:33.230Z,20.10
2018-05-17T14:38:01.019Z,24.73
2018-05-17T14:40:28.622Z,27.37
2018-05-17T14:42:56.202Z,34.10
2018-05-17T14:45:25.760Z,19.20
2018-05-17T14:47:53.426Z,31.13
2018-05-17T14:50:21.030Z,24.02
2018-05-17T14:52:49.463Z,26.60
2018-05-17T14:55:17.547Z,21.13
2018-05-17T14:57:45.156Z,29.50
2018-05-17T15:00:12.856Z,31.80
2018-05-17T15:02:41.197Z,28.57
2018-05-17T15:05:09.732Z,22.87
2018-05-17T15:07:37.421Z,20.60
2018-05-17T15:10:05.292Z,22.73
2018-05-17T15:12:32.852Z,28.00
2018-05-17T15:15:00.416Z,27.67
2018-05-17T15:17:28.043Z,35.27
2018-05-17T15:19:55.875Z,24.30
2018-05-17T15:22:23.414Z,63.47
2018-05-17T15:24:51.748Z,34.80
2018-05-17T15:27:19.430Z,24.67
2018-05-17T15:29:47.854Z,26.43
2018-05-17T15:32:15.402Z,24.93
2018-05-17T15:34:42.958Z,24.23
2018-05-17T15:37:11.271Z,27.73
2018-05-17T15:39:38.835Z,28.80
2018-05-17T15:42:06.352Z,21.77
2018-05-17T15:44:34.165Z,28.80
2018-05-17T15:47:01.459Z,20.27
2018-05-17T15:49:29.771Z,27.20
2018-05-17T15:51:57.444Z,24.00
2018-05-17T15:54:26.060Z,21.90
2018-05-17T15:56:53.842Z,23.00
2018-05-17T15:59:21.980Z,27.90
2018-05-17T16:01:50.417Z,25.03
2018-05-17T16:04:18.038Z,19.57
2018-05-17T16:06:46.093Z,23.17
2018-05-17T16:09:13.718Z,20.70
2018-05-17T16:11:41.277Z,22.13
2018-05-17T16:14:09.763Z,29.00
2018-05-17T16:16:37.325Z,25.37
2018-05-17T16:19:04.977Z,29.33
2018-05-17T16:21:32.621Z,27.10
2018-05-17T16:24:01.246Z,25.07
2018-05-17T16:26:29.577Z,24.57
2018-05-17T16:28:57.129Z,35.30
2018-05-17T16:31:24.741Z,31.63
2018-05-17T16:33:52.391Z,25.43
2018-05-17T16:36:20.704Z,36.93
2018-05-17T16:38:49.028Z,33.83
2018-05-17T16:41:16.626Z,27.90
2018-05-17T16:43:44.460Z,29.13
2018-05-17T16:46:12.774Z,35.83
2018-05-17T16:48:40.306Z,26.57
2018-05-17T16:51:07.862Z,32.63
2018-05-17T16:53:35.504Z,40.87
2018-05-17T16:56:03.092Z,51.47
2018-05-17T16:58:30.783Z,41.13
2018-05-17T17:00:58.408Z,36.20
2018-05-17T17:03:26.782Z,33.60
2018-05-17T17:05:54.323Z,27.37
2018-05-17T17:08:21.956Z,28.63
2018-05-17T17:10:50.293Z,39.73
2018-05-17T17:13:17.848Z,32.00
2018-05-17T17:15:46.200Z,42.23
2018-05-17T17:18:13.731Z,48.93
2018-05-17T17:20:41.322Z,33.40
2018-05-17T17:23:08.855Z,34.60
2018-05-17T17:25:37.476Z,37.50
2018-05-17T17:28:05.323Z,43.37
2018-05-17T17:30:32.896Z,32.20
2018-05-17T17:33:00.419Z,33.00
2018-05-17T17:35:27.993Z,36.17
2018-05-17T17:37:55.552Z,31.53
2018-05-17T17:40:29.730Z,45.13
2018-05-17T17:42:57.342Z,44.27
2018-05-17T17:45:24.914Z,49.10
2018-05-17T17:47:52.463Z,40.70
2018-05-17T17:50:20.000Z,40.77
2018-05-17T17:52:48.548Z,37.43
2018-05-17T17:55:16.096Z,35.63
2018-05-17T17:57:44.482Z,48.63
2018-05-17T18:00:12.435Z,30.52
2018-05-17T18:02:40.036Z,38.43
2018-05-17T18:05:07.677Z,36.47
2018-05-17T18:07:35.251Z,45.10
2018-05-17T18:10:02.780Z,32.27
2018-05-17T18:12:30.365Z,41.83
2018-05-17T18:14:58.845Z,67.73
2018-05-17T18:17:26.449Z,55.80
2018-05-17T18:19:55.705Z,53.23
2018-05-17T18:22:23.959Z,46.17
2018-05-17T18:24:51.681Z,39.77
2018-05-17T18:27:19.407Z,37.10
2018-05-17T18:29:46.993Z,33.73
2018-05-17T18:32:16.301Z,45.37
2018-05-17T18:34:43.860Z,44.17
2018-05-17T18:37:11.434Z,57.30
2018-05-17T18:39:39.097Z,58.13
2018-05-17T18:42:06.699Z,42.40
2018-05-17T18:44:34.231Z,47.60
2018-05-17T18:47:01.811Z,66.77
2018-05-17T18:49:29.336Z,45.60
2018-05-17T18:51:56.908Z,49.97
2018-05-17T18:54:25.255Z,38.35
2018-05-17T18:56:53.683Z,49.77
2018-05-17T18:59:21.173Z,45.90
2018-05-17T19:01:48.795Z,67.07
2018-05-17T19:04:17.049Z,43.20
2018-05-17T19:06:44.603Z,42.43
2018-05-17T19:09:12.135Z,52.37
2018-05-17T19:11:39.704Z,50.43
2018-05-17T19:14:07.381Z,49.23
2018-05-17T19:16:35.703Z,36.33
2018-05-17T19:19:04.089Z,33.57
2018-05-17T19:21:32.693Z,28.97
2018-05-17T19:24:01.043Z,54.67
2018-05-17T19:26:28.737Z,44.30
2018-05-17T19:28:56.268Z,28.67
2018-05-17T19:31:24.645Z,38.40
2018-05-17T19:33:52.120Z,33.43
2018-05-17T19:36:19.678Z,52.43
2018-05-17T19:38:47.316Z,38.43
2018-05-17T19:41:16.666Z,35.73
2018-05-17T19:43:44.220Z,32.90
2018-05-17T19:46:11.744Z,38.50
2018-05-17T19:48:40.075Z,32.60
2018-05-17T19:51:08.375Z,36.83
2018-05-17T19:53:35.952Z,49.83
2018-05-17T19:56:03.484Z,39.27
2018-05-17T19:58:31.083Z,42.03
2018-05-17T20:00:59.372Z,44.90
2018-05-17T20:03:26.968Z,39.50
2018-05-17T20:05:55.292Z,44.13
2018-05-17T20:08:22.867Z,43.93
2018-05-17T20:10:50.439Z,60.93
2018-05-17T20:13:18.899Z,34.20
2018-05-17T20:15:47.325Z,42.00
2018-05-17T20:18:16.312Z,44.10
2018-05-17T20:20:43.859Z,35.37
2018-05-17T20:23:11.403Z,47.77
2018-05-17T20:25:38.930Z,49.23
2018-05-17T20:28:06.651Z,49.77
2018-05-17T20:30:34.187Z,45.30
2018-05-17T20:33:01.743Z,48.57
2018-05-17T20:35:29.514Z,39.57
2018-05-17T20:37:57.162Z,41.63
2018-05-17T20:40:24.692Z,51.23
2018-05-17T20:42:52.250Z,44.77
2018-05-17T20:45:19.800Z,43.23
2018-05-17T20:47:47.356Z,40.20
2018-05-17T20:50:14.901Z,33.87
2018-05-17T20:52:42.464Z,43.87
2018-05-17T20:55:10.171Z,41.77
2018-05-17T20:57:38.455Z,36.20
2018-05-17T21:00:05.996Z,39.20
2018-05-17T21:02:33.576Z,41.27
2018-05-17T21:05:02.363Z,44.63
2018-05-17T21:07:30.043Z,37.73
2018-05-17T21:09:57.592Z,44.10
2018-05-17T21:12:25.149Z,34.27
2018-05-17T21:14:52.719Z,37.50
2018-05-17T21:17:20.253Z,34.87
2018-05-17T21:19:47.811Z,44.33
2018-05-17T21:22:15.364Z,39.50
2018-05-17T21:24:42.915Z,44.63
2018-05-17T21:27:11.251Z,41.57
2018-05-17T21:29:38.779Z,39.77
2018-05-17T21:32:06.294Z,43.80
2018-05-17T21:34:33.846Z,43.67
2018-05-17T21:37:01.358Z,53.50
2018-05-17T21:39:29.786Z,55.93
2018-05-17T21:41:58.231Z,44.50
2018-05-17T21:44:25.784Z,35.93
2018-05-17T21:46:53.421Z,34.43
2018-05-17T21:49:20.971Z,50.90
2018-05-17T21:51:48.503Z,64.03
2018-05-17T21:54:16.157Z,38.67
2018-05-17T21:56:43.786Z,45.77
2018-05-17T21:59:11.468Z,58.43
2018-05-17T22:01:39.058Z,47.67
2018-05-17T22:04:06.760Z,55.30
2018-05-17T22:06:34.396Z,38.23
2018-05-17T22:09:01.942Z,56.97
2018-05-17T22:11:29.471Z,43.73
2018-05-17T22:13:56.998Z,46.10
2018-05-17T22:16:24.548Z,55.53
2018-05-17T22:18:52.113Z,43.13
2018-05-17T22:21:19.655Z,51.87
2018-05-17T22:23:47.643Z,53.07
2018-05-17T22:26:15.207Z,51.53
2018-05-17T22:28:43.529Z,43.20
2018-05-17T22:31:11.080Z,41.93
2018-05-17T22:33:38.681Z,43.37
2018-05-17T22:36:06.253Z,52.83
2018-05-17T22:38:33.799Z,51.97
2018-05-17T22:41:01.445Z,69.00
2018-05-17T22:43:28.989Z,48.20
2018-05-17T22:45:56.539Z,62.67
2018-05-17T22:48:24.076Z,59.30
2018-05-17T22:50:51.639Z,50.43
2018-05-17T22:53:20.090Z,54.33
2018-05-17T22:55:47.639Z,51.20
2018-05-17T22:58:27.092Z,50.27
2018-05-17T23:00:54.644Z,43.27
2018-05-17T23:03:22.940Z,58.17
2018-05-17T23:05:50.517Z,54.93
2018-05-17T23:08:18.071Z,48.23
2018-05-17T23:10:45.876Z,45.97
2018-05-17T23:13:13.408Z,47.17
2018-05-17T23:15:41.718Z,51.97
2018-05-17T23:18:09.264Z,47.40
2018-05-17T23:20:36.818Z,49.67
2018-05-17T23:23:04.352Z,44.77
2018-05-17T23:25:31.912Z,49.00
2018-05-17T23:27:59.447Z,53.63
2018-05-17T23:30:27.011Z,56.80
2018-05-17T23:32:54.549Z,50.03
2018-05-17T23:35:22.076Z,52.80
2018-05-17T23:37:49.631Z,56.90
2018-05-17T23:43:13.060Z,52.77
2018-05-17T23:45:40.592Z,65.77
2018-05-17T23:48:08.144Z,42.10
2018-05-17T23:50:35.688Z,55.83
2018-05-17T23:53:03.241Z,51.07
2018-05-17T23:55:30.778Z,52.93
2018-05-17T23:57:58.367Z,45.77
